| time (UTC) | temp F | wind direction | speed MPH | gust MPH | rain 1hr in | rain 24hr in | rain mn in | humidity % | barometer mb |
| 20260507010913 | 50 | 1 | 2.0 | 5.0 | 0.00 | 0.00 | 0.00 | 93 | 1013.6 |
| 20260507010408 | 50 | 242 | 4.0 | 5.0 | 0.00 | 0.00 | 0.00 | 93 | 1013.3 |
| 20260507005906 | 50 | 19 | 1.0 | 4.0 | 0.00 | 0.00 | 0.00 | 93 | 1013.6 |
| 20260507005403 | 50 | 22 | 2.0 | 7.0 | 0.00 | 0.00 | 0.00 | 92 | 1013.5 |
| 20260507004859 | 50 | 272 | 3.0 | 9.0 | 0.00 | 0.00 | 0.00 | 92 | 1013.4 |
| 20260507004356 | 50 | 2 | 2.0 | 6.0 | 0.00 | 0.00 | 0.00 | 94 | 1013.3 |
| 20260507003853 | 50 | 65 | 2.0 | 4.0 | 0.00 | 0.00 | 0.00 | 94 | 1013.2 |
| 20260507003349 | 50 | 275 | 1.0 | 3.0 | 0.00 | 0.00 | 0.00 | 95 | 1013.3 |
| 20260507002844 | 50 | 265 | 1.0 | 3.0 | 0.00 | 0.00 | 0.00 | 95 | 1013.0 |
| 20260507002340 | 50 | 50 | 0.0 | 2.0 | 0.00 | 0.00 | 0.00 | 95 | 1013.1 |
| 20260507001838 | 50 | 264 | 0.0 | 3.0 | 0.00 | 0.00 | 0.00 | 94 | 1013.0 |
| 20260507001334 | 50 | 12 | 2.0 | 4.0 | 0.00 | 0.00 | 0.00 | 94 | 1012.7 |
| 20260507000831 | 50 | 65 | 4.0 | 8.0 | 0.00 | 0.00 | 0.00 | 94 | 1012.7 |
| 20260507000328 | 50 | 312 | 2.0 | 5.0 | 0.00 | 0.00 | 0.00 | 95 | 1012.4 |
| 20260506235823 | 50 | 306 | 1.0 | 7.0 | 0.00 | 0.00 | 0.00 | 95 | 1012.4 |
| 20260506235320 | 50 | 7 | 3.0 | 6.0 | 0.00 | 0.00 | 0.00 | 95 | 1012.1 |
| 20260506234816 | 50 | 357 | 2.0 | 6.0 | 0.00 | 0.00 | 0.00 | 95 | 1012.5 |
| 20260506234314 | 50 | 29 | 3.0 | 4.0 | 0.00 | 0.00 | 0.00 | 95 | 1012.2 |
| 20260506233811 | 50 | 33 | 3.0 | 5.0 | 0.00 | 0.00 | 0.00 | 95 | 1012.1 |
| 20260506233307 | 50 | 277 | 2.0 | 5.0 | 0.00 | 0.00 | 0.00 | 96 | 1012.2 |
| 20260506232804 | 50 | 56 | 3.0 | 8.0 | 0.00 | 0.00 | 0.00 | 96 | 1012.4 |
| 20260506232259 | 50 | 7 | 5.0 | 8.0 | 0.00 | 0.00 | 0.00 | 95 | 1012.4 |
| 20260506231751 | 51 | 5 | 3.0 | 8.0 | 0.00 | 0.00 | 0.00 | 96 | 1012.1 |
| 20260506231250 | 51 | 296 | 5.0 | 7.0 | 0.00 | 0.00 | 0.00 | 95 | 1012.2 |
| 20260506230746 | 51 | 265 | 3.0 | 8.0 | 0.00 | 0.00 | 0.00 | 95 | 1012.0 |
| 20260506230243 | 51 | 20 | 3.0 | 8.0 | 0.00 | 0.00 | 0.00 | 95 | 1011.8 |
| 20260506225740 | 51 | 309 | 3.0 | 5.0 | 0.00 | 0.00 | 0.00 | 95 | 1011.9 |
| 20260506225237 | 51 | 322 | 4.0 | 7.0 | 0.00 | 0.00 | 0.00 | 95 | 1011.9 |
| 20260506224733 | 52 | 350 | 2.0 | 3.0 | 0.00 | 0.00 | 0.00 | 96 | 1011.6 |
| 20260506224231 | 52 | 81 | 0.0 | 3.0 | 0.00 | 0.00 | 0.00 | 95 | 1011.5 |
| 20260506223727 | 52 | 324 | 3.0 | 7.0 | 0.00 | 0.00 | 0.00 | 95 | 1011.4 |
| 20260506223222 | 51 | 333 | 3.0 | 6.0 | 0.00 | 0.00 | 0.00 | 95 | 1011.4 |
| 20260506222719 | 51 | 280 | 6.0 | 9.0 | 0.00 | 0.00 | 0.00 | 95 | 1011.3 |
| 20260506222214 | 51 | 297 | 1.0 | 9.0 | 0.00 | 0.00 | 0.00 | 96 | 1011.1 |
| 20260506221712 | 51 | 27 | 4.0 | 8.0 | 0.00 | 0.00 | 0.00 | 98 | 1010.8 |
| 20260506221210 | 52 | 3 | 3.0 | 6.0 | 0.00 | 0.00 | 0.00 | 99 | 1010.6 |
| 20260506220707 | 52 | 172 | 2.0 | 16.0 | 0.00 | 0.00 | 0.00 | 97 | 1010.3 |
| 20260506220202 | 52 | 340 | 4.0 | 19.0 | 0.00 | 0.00 | 0.00 | 97 | 1010.1 |
| 20260506215659 | 52 | 277 | 7.0 | 15.0 | 0.00 | 0.00 | 0.00 | 98 | 1009.6 |
| 20260506215154 | 52 | 267 | 12.0 | 16.0 | 0.00 | 0.00 | 0.00 | 98 | 1009.5 |
| 20260506214646 | 52 | 122 | 2.0 | 18.0 | 0.00 | 0.00 | 0.00 | 99 | 1009.4 |
| 20260506214143 | 52 | 193 | 2.0 | 23.0 | 0.00 | 0.00 | 0.00 | 99 | 1009.5 |
| 20260506213642 | 53 | 2 | 5.0 | 16.0 | 0.00 | 0.00 | 0.00 | 99 | 1009.2 |
| 20260506213138 | 53 | 329 | 7.0 | 16.0 | 0.00 | 0.00 | 0.00 | 99 | 1009.2 |
| 20260506212635 | 55 | 290 | 6.0 | 17.0 | 0.00 | 0.00 | 0.00 | 98 | 1008.8 |
| 20260506212130 | 57 | 260 | 16.0 | 30.0 | 0.00 | 0.00 | 0.00 | 95 | 1008.9 |
| 20260506211626 | 62 | 138 | 0.0 | 5.0 | 0.00 | 0.00 | 0.00 | 99 | 1008.4 |
| 20260506211123 | 62 | 146 | 4.0 | 7.0 | 0.00 | 0.00 | 0.00 | 99 | 1008.3 |
| 20260506210620 | 62 | 85 | 5.0 | 6.0 | 0.00 | 0.00 | 0.00 | 99 | 1008.2 |
| 20260506210117 | 62 | 31 | 3.0 | 7.0 | 0.00 | 0.00 | 0.00 | 99 | 1008.1 |
| 20260506205614 | 62 | 75 | 4.0 | 7.0 | 0.00 | 0.00 | 0.00 | 99 | 1008.1 |
| 20260506205114 | 61 | 91 | 4.0 | 8.0 | 0.00 | 0.00 | 0.00 | 99 | 1008.1 |
| 20260506204612 | 61 | 68 | 3.0 | 8.0 | 0.00 | 0.00 | 0.00 | 99 | 1008.2 |
| 20260506204109 | 62 | 333 | 1.0 | 7.0 | 0.00 | 0.00 | 0.00 | 98 | 1008.2 |
| 20260506203607 | 62 | 126 | 2.0 | 6.0 | 0.00 | 0.00 | 0.00 | 98 | 1007.9 |
| 20260506203103 | 62 | 78 | 3.0 | 7.0 | 0.00 | 0.00 | 0.00 | 97 | 1008.1 |
| 20260506202601 | 62 | 61 | 4.0 | 8.0 | 0.00 | 0.00 | 0.00 | 97 | 1007.8 |
| 20260506202057 | 63 | 134 | 8.0 | 15.0 | 0.00 | 0.00 | 0.00 | 96 | 1008.0 |
| 20260506201555 | 62 | 140 | 3.0 | 9.0 | 0.00 | 0.00 | 0.00 | 98 | 1007.9 |
| 20260506201051 | 62 | 189 | 5.0 | 8.0 | 0.00 | 0.00 | 0.00 | 98 | 1008.0 |
| 20260506200547 | 62 | 65 | 2.0 | 4.0 | 0.00 | 0.00 | 0.00 | 99 | 1008.1 |
| 20260506200044 | 62 | 57 | 3.0 | 3.0 | 0.00 | 0.00 | 0.00 | 99 | 1008.1 |
| 20260506195541 | 62 | 119 | 3.0 | 6.0 | 0.00 | 0.00 | 0.00 | 99 | 1007.9 |
| 20260506195037 | 61 | 12 | 0.0 | 5.0 | 0.00 | 0.00 | 0.00 | 99 | 1008.2 |
| 20260506194535 | 61 | 92 | 1.0 | 4.0 | 0.00 | 0.00 | 0.00 | 99 | 1008.3 |
| 20260506194031 | 61 | 89 | 0.0 | 4.0 | 0.00 | 0.00 | 0.00 | 99 | 1008.0 |
| 20260506193529 | 61 | 98 | 0.0 | 3.0 | 0.00 | 0.00 | 0.00 | 99 | 1008.3 |
| 20260506193026 | 61 | 282 | 0.0 | 4.0 | 0.00 | 0.00 | 0.00 | 99 | 1008.3 |
| 20260506192523 | 60 | 86 | 1.0 | 3.0 | 0.00 | 0.00 | 0.00 | 99 | 1008.3 |
| 20260506192018 | 61 | 158 | 2.0 | 3.0 | 0.00 | 0.00 | 0.00 | 99 | 1008.3 |
| 20260506191516 | 61 | 84 | 2.0 | 3.0 | 0.00 | 0.00 | 0.00 | 99 | 1008.4 |
| 20260506191012 | 61 | 9 | 0.0 | 5.0 | 0.00 | 0.00 | 0.00 | 99 | 1008.4 |
| 20260506190509 | 61 | 99 | 3.0 | 5.0 | 0.00 | 0.00 | 0.00 | 99 | 1008.4 |
| 20260506190006 | 60 | 123 | 3.0 | 4.0 | 0.00 | 0.00 | 0.00 | 99 | 1008.4 |
| 20260506185503 | 60 | 131 | 1.0 | 4.0 | 0.00 | 0.00 | 0.00 | 99 | 1008.3 |
| 20260506184959 | 60 | 40 | 1.0 | 3.0 | 0.00 | 0.00 | 0.00 | 99 | 1008.4 |
| 20260506184457 | 59 | 91 | 3.0 | 5.0 | 0.00 | 0.00 | 0.00 | 99 | 1008.6 |
| 20260506183954 | 60 | 96 | 2.0 | 3.0 | 0.00 | 0.00 | 0.00 | 99 | 1008.7 |
| 20260506183449 | 59 | 107 | 1.0 | 6.0 | 0.00 | 0.00 | 0.00 | 99 | 1008.8 |
| 20260506182946 | 59 | 130 | 3.0 | 4.0 | 0.00 | 0.00 | 0.00 | 99 | 1008.6 |
| 20260506182444 | 59 | 143 | 0.0 | 3.0 | 0.00 | 0.00 | 0.00 | 99 | 1008.7 |
| 20260506181941 | 59 | 217 | 1.0 | 5.0 | 0.00 | 0.00 | 0.00 | 99 | 1008.7 |
| 20260506181439 | 59 | 147 | 1.0 | 4.0 | 0.00 | 0.00 | 0.00 | 99 | 1008.8 |
| 20260506180935 | 59 | 86 | 1.0 | 3.0 | 0.00 | 0.00 | 0.00 | 99 | 1008.9 |
| 20260506180432 | 59 | 173 | 1.0 | 3.0 | 0.00 | 0.00 | 0.00 | 99 | 1008.8 |
| 20260506175929 | 59 | 356 | 2.0 | 4.0 | 0.00 | 0.00 | 0.00 | 99 | 1008.8 |
| 20260506175425 | 59 | 122 | 3.0 | 4.0 | 0.00 | 0.00 | 0.00 | 99 | 1008.9 |
| 20260506174922 | 59 | 126 | 1.0 | 4.0 | 0.00 | 0.00 | 0.00 | 99 | 1008.8 |
| 20260506174420 | 59 | 142 | 1.0 | 3.0 | 0.00 | 0.00 | 0.00 | 99 | 1008.8 |
| 20260506173917 | 59 | 18 | 1.0 | 3.0 | 0.00 | 0.00 | 0.00 | 99 | 1008.8 |
| 20260506173414 | 59 | 205 | 0.0 | 3.0 | 0.00 | 0.00 | 0.00 | 99 | 1009.0 |
| 20260506172911 | 59 | 115 | 0.0 | 4.0 | 0.00 | 0.00 | 0.00 | 99 | 1008.9 |
| 20260506172407 | 59 | 145 | 2.0 | 4.0 | 0.00 | 0.00 | 0.00 | 99 | 1008.9 |
| 20260506171859 | 59 | 30 | 0.0 | 4.0 | 0.00 | 0.00 | 0.00 | 99 | 1008.8 |
| 20260506171356 | 59 | 347 | 0.0 | 3.0 | 0.00 | 0.00 | 0.00 | 99 | 1009.0 |
| 20260506170853 | 59 | 64 | 0.0 | 3.0 | 0.00 | 0.00 | 0.00 | 99 | 1009.0 |
| 20260506170349 | 59 | 95 | 1.0 | 2.0 | 0.00 | 0.00 | 0.00 | 99 | 1008.8 |
| 20260506165849 | 59 | 297 | 0.0 | 3.0 | 0.00 | 0.00 | 0.00 | 99 | 1008.9 |
| 20260506165346 | 59 | 75 | 1.0 | 4.0 | 0.00 | 0.00 | 0.00 | 99 | 1008.8 |
| 20260506164842 | 59 | 123 | 0.0 | 3.0 | 0.00 | 0.00 | 0.00 | 99 | 1008.9 |
| 20260506164339 | 59 | 260 | 0.0 | 2.0 | 0.00 | 0.00 | 0.00 | 99 | 1008.7 |
| 20260506163837 | 59 | 103 | 0.0 | 3.0 | 0.00 | 0.00 | 0.00 | 99 | 1008.9 |
| 20260506163331 | 59 | 113 | 0.0 | 4.0 | 0.00 | 0.00 | 0.00 | 99 | 1008.7 |
| 20260506162827 | 59 | 100 | 3.0 | 5.0 | 0.00 | 0.00 | 0.00 | 99 | 1008.9 |
| 20260506162325 | 59 | 103 | 0.0 | 2.0 | 0.00 | 0.00 | 0.00 | 99 | 1008.9 |
| 20260506161823 | 59 | 74 | 0.0 | 5.0 | 0.00 | 0.00 | 0.00 | 99 | 1008.9 |
| 20260506161319 | 59 | 120 | 3.0 | 4.0 | 0.00 | 0.00 | 0.00 | 99 | 1008.8 |
| 20260506160812 | 59 | 326 | 0.0 | 3.0 | 0.00 | 0.00 | 0.00 | 99 | 1008.9 |
| 20260506160308 | 59 | 75 | 0.0 | 4.0 | 0.00 | 0.00 | 0.00 | 99 | 1008.9 |
| 20260506155807 | 59 | 210 | 0.0 | 4.0 | 0.00 | 0.00 | 0.00 | 99 | 1009.0 |
| 20260506155306 | 59 | 76 | 0.0 | 2.0 | 0.00 | 0.00 | 0.00 | 99 | 1008.8 |
| 20260506153415 | 59 | 64 | 3.0 | 3.0 | 0.00 | 0.00 | 0.00 | 99 | 1009.1 |
| 20260506152913 | 59 | 155 | 3.0 | 7.0 | 0.00 | 0.00 | 0.00 | 99 | 1009.2 |
| 20260506152409 | 59 | 261 | 0.0 | 4.0 | 0.00 | 0.00 | 0.00 | 99 | 1009.3 |
| 20260506151908 | 59 | 110 | 0.0 | 4.0 | 0.00 | 0.00 | 0.00 | 99 | 1009.3 |
| 20260506151404 | 59 | 145 | 1.0 | 6.0 | 0.00 | 0.00 | 0.00 | 99 | 1009.4 |
| 20260506150902 | 59 | 118 | 2.0 | 6.0 | 0.00 | 0.00 | 0.00 | 99 | 1009.3 |
| 20260506150358 | 59 | 170 | 1.0 | 4.0 | 0.00 | 0.00 | 0.00 | 99 | 1009.2 |
| 20260506145855 | 59 | 237 | 0.0 | 3.0 | 0.00 | 0.00 | 0.00 | 99 | 1009.1 |
| 20260506145351 | 59 | 128 | 2.0 | 3.0 | 0.00 | 0.00 | 0.00 | 99 | 1009.3 |
| 20260506144849 | 59 | 138 | 2.0 | 3.0 | 0.00 | 0.00 | 0.00 | 99 | 1009.2 |
| 20260506144345 | 59 | 184 | 1.0 | 4.0 | 0.00 | 0.00 | 0.00 | 99 | 1008.9 |
| 20260506143844 | 59 | 114 | 13.0 | 13.0 | 0.00 | 0.00 | 0.00 | 99 | 1009.1 |
| 20260506143341 | 59 | 114 | 13.0 | 13.0 | 0.00 | 0.00 | 0.00 | 99 | 1009.0 |
| 20260506142839 | 59 | 92 | 11.0 | 12.0 | 0.00 | 0.00 | 0.00 | 99 | 1009.2 |
| 20260506142337 | 59 | 85 | 4.0 | 9.0 | 0.00 | 0.00 | 0.00 | 99 | 1009.3 |
| 20260506141835 | 59 | 118 | 9.0 | 13.0 | 0.00 | 0.00 | 0.00 | 99 | 1009.3 |
| 20260506141332 | 59 | 75 | 1.0 | 5.0 | 0.00 | 0.00 | 0.00 | 99 | 1009.3 |
| 20260506140830 | 59 | 98 | 1.0 | 6.0 | 0.00 | 0.00 | 0.00 | 99 | 1009.3 |
| 20260506140327 | 58 | 210 | 2.0 | 4.0 | 0.00 | 0.00 | 0.00 | 99 | 1009.3 |
| 20260506135824 | 58 | 37 | 0.0 | 2.0 | 0.00 | 0.00 | 0.00 | 99 | 1009.3 |
| 20260506135320 | 58 | 208 | 0.0 | 2.0 | 0.00 | 0.00 | 0.00 | 99 | 1009.3 |
| 20260506134817 | 58 | 142 | 0.0 | 4.0 | 0.00 | 0.00 | 0.00 | 99 | 1009.3 |
| 20260506134313 | 59 | 98 | 2.0 | 3.0 | 0.00 | 0.00 | 0.00 | 99 | 1009.6 |
| 20260506133810 | 59 | 110 | 1.0 | 3.0 | 0.00 | 0.00 | 0.00 | 99 | 1009.6 |
| 20260506133307 | 59 | 94 | 1.0 | 4.0 | 0.00 | 0.00 | 0.00 | 99 | 1009.8 |
| 20260506132804 | 59 | 130 | 0.0 | 2.0 | 0.00 | 0.00 | 0.00 | 99 | 1009.8 |
| 20260506132301 | 59 | 59 | 0.0 | 2.0 | 0.00 | 0.00 | 0.00 | 99 | 1009.7 |
| 20260506131759 | 59 | 27 | 1.0 | 2.0 | 0.00 | 0.00 | 0.00 | 99 | 1009.7 |
| 20260506131255 | 59 | 93 | 1.0 | 2.0 | 0.00 | 0.00 | 0.00 | 99 | 1009.8 |
| 20260506130752 | 59 | 93 | 1.0 | 3.0 | 0.00 | 0.00 | 0.00 | 99 | 1010.1 |
| 20260506130249 | 59 | 113 | 2.0 | 4.0 | 0.00 | 0.00 | 0.00 | 98 | 1010.1 |
| 20260506125747 | 59 | 78 | 3.0 | 5.0 | 0.00 | 0.00 | 0.00 | 97 | 1010.2 |
| 20260506125244 | 59 | 114 | 2.0 | 5.0 | 0.00 | 0.00 | 0.00 | 96 | 1010.1 |
| 20260506124743 | 60 | 111 | 3.0 | 8.0 | 0.00 | 0.00 | 0.00 | 94 | 1010.2 |
| 20260506124240 | 60 | 127 | 0.0 | 5.0 | 0.00 | 0.00 | 0.00 | 92 | 1010.1 |
| 20260506123737 | 60 | 89 | 2.0 | 6.0 | 0.00 | 0.00 | 0.00 | 90 | 1009.9 |
| 20260506123236 | 61 | 51 | 1.0 | 6.0 | 0.00 | 0.00 | 0.00 | 89 | 1009.8 |
| 20260506122732 | 61 | 109 | 3.0 | 9.0 | 0.00 | 0.00 | 0.00 | 89 | 1009.9 |
| 20260506122229 | 62 | 5 | 1.0 | 15.0 | 0.00 | 0.00 | 0.00 | 85 | 1009.5 |
| 20260506121728 | 63 | 41 | 1.0 | 10.0 | 0.00 | 0.00 | 0.00 | 82 | 1009.6 |
| 20260506121224 | 64 | 135 | 9.0 | 12.0 | 0.00 | 0.00 | 0.00 | 78 | 1009.4 |
| 20260506120722 | 63 | 95 | 8.0 | 10.0 | 0.00 | 0.00 | 0.00 | 79 | 1009.0 |
| 20260506120219 | 64 | 105 | 4.0 | 11.0 | 0.00 | 0.00 | 0.00 | 79 | 1009.3 |
| 20260506115717 | 65 | 105 | 4.0 | 8.0 | 0.00 | 0.00 | 0.00 | 75 | 1009.3 |
| 20260506115215 | 65 | 75 | 3.0 | 7.0 | 0.00 | 0.00 | 0.00 | 74 | 1009.4 |
| 20260506114712 | 65 | 100 | 3.0 | 13.0 | 0.00 | 0.00 | 0.00 | 72 | 1009.4 |
| 20260506114210 | 65 | 54 | 3.0 | 9.0 | 0.00 | 0.00 | 0.00 | 72 | 1009.4 |
| 20260506113708 | 65 | 51 | 0.0 | 6.0 | 0.00 | 0.00 | 0.00 | 73 | 1009.4 |
| 20260506113205 | 65 | 36 | 2.0 | 8.0 | 0.00 | 0.00 | 0.00 | 72 | 1009.4 |
| 20260506112701 | 65 | 106 | 3.0 | 7.0 | 0.00 | 0.00 | 0.00 | 72 | 1009.4 |
| 20260506112159 | 65 | 62 | 2.0 | 11.0 | 0.00 | 0.00 | 0.00 | 71 | 1009.4 |
| 20260506111656 | 64 | 101 | 4.0 | 8.0 | 0.00 | 0.00 | 0.00 | 73 | 1009.2 |
| 20260506111154 | 63 | 54 | 2.0 | 3.0 | 0.00 | 0.00 | 0.00 | 74 | 1009.2 |
| 20260506110651 | 63 | 96 | 2.0 | 3.0 | 0.00 | 0.00 | 0.00 | 75 | 1009.2 |
| 20260506110149 | 63 | 65 | 4.0 | 4.0 | 0.00 | 0.00 | 0.00 | 74 | 1009.1 |
| 20260506105645 | 63 | 66 | 1.0 | 2.0 | 0.00 | 0.00 | 0.00 | 73 | 1008.9 |
| 20260506105142 | 64 | 86 | 1.0 | 2.0 | 0.00 | 0.00 | 0.00 | 73 | 1009.1 |
| 20260506104640 | 64 | 42 | 0.0 | 2.0 | 0.00 | 0.00 | 0.00 | 72 | 1009.1 |
| 20260506104137 | 64 | 52 | 0.0 | 3.0 | 0.00 | 0.00 | 0.00 | 73 | 1009.0 |
| 20260506103634 | 64 | 233 | 1.0 | 2.0 | 0.00 | 0.00 | 0.00 | 71 | 1009.0 |
| 20260506103131 | 64 | 142 | 0.0 | 2.0 | 0.00 | 0.00 | 0.00 | 70 | 1008.6 |
| 20260506102629 | 64 | 69 | 2.0 | 3.0 | 0.00 | 0.00 | 0.00 | 70 | 1008.6 |
| 20260506102126 | 64 | 121 | 1.0 | 3.0 | 0.00 | 0.00 | 0.00 | 69 | 1008.6 |
| 20260506101623 | 64 | 69 | 2.0 | 3.0 | 0.00 | 0.00 | 0.00 | 69 | 1008.6 |
| 20260506101120 | 64 | 53 | 2.0 | 4.0 | 0.00 | 0.00 | 0.00 | 69 | 1008.6 |
| 20260506100618 | 64 | 128 | 0.0 | 3.0 | 0.00 | 0.00 | 0.00 | 70 | 1008.6 |
| 20260506100116 | 64 | 168 | 0.0 | 6.0 | 0.00 | 0.00 | 0.00 | 69 | 1008.5 |
| 20260506095615 | 62 | 126 | 0.0 | 2.0 | 0.00 | 0.00 | 0.00 | 71 | 1008.6 |
| 20260506095111 | 62 | 126 | 1.0 | 3.0 | 0.00 | 0.00 | 0.00 | 71 | 1008.6 |
| 20260506094608 | 61 | 105 | 1.0 | 2.0 | 0.00 | 0.00 | 0.00 | 74 | 1008.7 |
| 20260506094106 | 61 | 117 | 0.0 | 2.0 | 0.00 | 0.00 | 0.00 | 74 | 1008.9 |
| 20260506093604 | 61 | 72 | 1.0 | 3.0 | 0.00 | 0.00 | 0.00 | 76 | 1008.8 |
| 20260506093101 | 61 | 82 | 1.0 | 3.0 | 0.00 | 0.00 | 0.00 | 75 | 1008.8 |
| 20260506092559 | 61 | 211 | 1.0 | 3.0 | 0.00 | 0.00 | 0.00 | 74 | 1008.8 |
| 20260506092055 | 61 | 117 | 2.0 | 5.0 | 0.00 | 0.00 | 0.00 | 76 | 1008.6 |
| 20260506091554 | 60 | 155 | 0.0 | 4.0 | 0.00 | 0.00 | 0.00 | 79 | 1008.8 |
| 20260506091051 | 60 | 203 | 0.0 | 3.0 | 0.00 | 0.00 | 0.00 | 79 | 1008.8 |
| 20260506090549 | 59 | 354 | 1.0 | 2.0 | 0.00 | 0.00 | 0.00 | 82 | 1008.9 |
| 20260506090045 | 59 | 105 | 2.0 | 3.0 | 0.00 | 0.00 | 0.00 | 82 | 1008.9 |
| 20260506085542 | 59 | 78 | 1.0 | 2.0 | 0.00 | 0.00 | 0.00 | 81 | 1009.0 |
| 20260506085038 | 59 | 104 | 0.0 | 2.0 | 0.00 | 0.00 | 0.00 | 80 | 1008.8 |
| 20260506084535 | 60 | 114 | 1.0 | 3.0 | 0.00 | 0.00 | 0.00 | 79 | 1008.8 |
| 20260506084031 | 59 | 168 | 2.0 | 4.0 | 0.00 | 0.00 | 0.00 | 77 | 1009.0 |
| 20260506083529 | 59 | 75 | 1.0 | 2.0 | 0.00 | 0.00 | 0.00 | 78 | 1008.8 |
| 20260506083026 | 59 | 96 | 3.0 | 3.0 | 0.00 | 0.00 | 0.00 | 78 | 1009.1 |
| 20260506082523 | 59 | 155 | 0.0 | 2.0 | 0.00 | 0.00 | 0.00 | 78 | 1009.1 |
| 20260506082018 | 60 | 54 | 0.0 | 2.0 | 0.00 | 0.00 | 0.00 | 78 | 1008.9 |
| 20260506081517 | 60 | 132 | 0.0 | 3.0 | 0.00 | 0.00 | 0.00 | 76 | 1008.9 |
| 20260506081014 | 60 | 206 | 2.0 | 4.0 | 0.00 | 0.00 | 0.00 | 73 | 1008.9 |
| 20260506080511 | 60 | 81 | 2.0 | 3.0 | 0.00 | 0.00 | 0.00 | 75 | 1008.9 |
| 20260506073455 | 59 | 106 | 0.0 | 2.0 | 0.00 | 0.00 | 0.00 | 79 | 1008.8 |
| 20260506072952 | 60 | 110 | 2.0 | 3.0 | 0.00 | 0.00 | 0.00 | 79 | 1008.9 |
| 20260506072449 | 60 | 50 | 0.0 | 3.0 | 0.00 | 0.00 | 0.00 | 75 | 1009.1 |
| 20260506071947 | 60 | 75 | 1.0 | 3.0 | 0.00 | 0.00 | 0.00 | 77 | 1009.0 |
| 20260506071445 | 60 | 157 | 0.0 | 1.0 | 0.00 | 0.00 | 0.00 | 79 | 1009.0 |
| 20260506070941 | 60 | 65 | 0.0 | 2.0 | 0.00 | 0.00 | 0.00 | 77 | 1009.2 |
| 20260506070438 | 60 | 37 | 0.0 | 2.0 | 0.00 | 0.00 | 0.00 | 75 | 1009.5 |
| 20260506062416 | 60 | 138 | 0.0 | 2.0 | 0.00 | 0.00 | 0.00 | 68 | 1009.5 |
| 20260506061911 | 59 | 140 | 0.0 | 1.0 | 0.00 | 0.00 | 0.00 | 71 | 1009.5 |
| 20260506061408 | 59 | 88 | 1.0 | 2.0 | 0.00 | 0.00 | 0.00 | 73 | 1009.6 |
| 20260506060906 | 60 | 127 | 0.0 | 2.0 | 0.00 | 0.00 | 0.00 | 74 | 1009.7 |
| 20260506060404 | 59 | 91 | 1.0 | 3.0 | 0.00 | 0.00 | 0.00 | 74 | 1009.7 |
| 20260506051336 | 57 | 121 | 0.0 | 2.0 | 0.00 | 0.00 | 0.00 | 79 | 1010.1 |
| 20260506050833 | 57 | 80 | 1.0 | 3.0 | 0.00 | 0.00 | 0.00 | 79 | 1010.4 |
| 20260506050331 | 57 | 86 | 4.0 | 4.0 | 0.00 | 0.00 | 0.00 | 83 | 1010.4 |
| 20260506044821 | 56 | 128 | 1.0 | 3.0 | 0.00 | 0.00 | 0.00 | 85 | 1010.2 |
| 20260506044319 | 57 | 153 | 2.0 | 3.0 | 0.00 | 0.00 | 0.00 | 84 | 1010.2 |
| 20260506043816 | 57 | 198 | 2.0 | 4.0 | 0.00 | 0.00 | 0.00 | 85 | 1010.2 |
| 20260506043313 | 57 | 176 | 2.0 | 3.0 | 0.00 | 0.00 | 0.00 | 84 | 1009.9 |
| 20260506042812 | 57 | 151 | 2.0 | 2.0 | 0.00 | 0.00 | 0.00 | 84 | 1010.2 |
| 20260506042310 | 57 | 80 | 0.0 | 2.0 | 0.00 | 0.00 | 0.00 | 84 | 1010.3 |
| 20260506041809 | 58 | 34 | 0.0 | 2.0 | 0.00 | 0.00 | 0.00 | 84 | 1010.4 |
| 20260506041305 | 58 | 174 | 3.0 | 3.0 | 0.00 | 0.00 | 0.00 | 82 | 1010.4 |
| 20260506040802 | 58 | 180 | 2.0 | 3.0 | 0.00 | 0.00 | 0.00 | 82 | 1010.4 |
| 20260506040259 | 58 | 188 | 0.0 | 3.0 | 0.00 | 0.00 | 0.00 | 82 | 1010.4 |
| 20260506035756 | 58 | 44 | 0.0 | 3.0 | 0.00 | 0.00 | 0.00 | 82 | 1010.4 |
| 20260506035253 | 58 | 155 | 2.0 | 4.0 | 0.00 | 0.00 | 0.00 | 84 | 1010.7 |
| 20260506034750 | 58 | 174 | 1.0 | 3.0 | 0.00 | 0.00 | 0.00 | 83 | 1010.4 |
| 20260506034247 | 58 | 87 | 1.0 | 3.0 | 0.00 | 0.00 | 0.00 | 83 | 1010.4 |
| 20260506033744 | 59 | 108 | 1.0 | 3.0 | 0.00 | 0.00 | 0.00 | 83 | 1010.3 |
| 20260506033241 | 59 | 85 | 2.0 | 3.0 | 0.00 | 0.00 | 0.00 | 82 | 1010.5 |
| 20260506032738 | 59 | 121 | 0.0 | 4.0 | 0.00 | 0.00 | 0.00 | 82 | 1010.4 |
| 20260506032235 | 58 | 134 | 3.0 | 4.0 | 0.00 | 0.00 | 0.00 | 83 | 1010.5 |
| 20260506031726 | 58 | 126 | 2.0 | 3.0 | 0.00 | 0.00 | 0.00 | 83 | 1010.2 |
| 20260506031224 | 59 | 122 | 2.0 | 4.0 | 0.00 | 0.00 | 0.00 | 82 | 1010.3 |
| 20260506030722 | 59 | 136 | 2.0 | 4.0 | 0.00 | 0.00 | 0.00 | 82 | 1010.3 |
| 20260506030219 | 59 | 161 | 2.0 | 4.0 | 0.00 | 0.00 | 0.00 | 82 | 1010.4 |
| 20260506025716 | 59 | 111 | 1.0 | 3.0 | 0.00 | 0.00 | 0.00 | 82 | 1010.4 |
| 20260506025212 | 59 | 153 | 1.0 | 5.0 | 0.00 | 0.00 | 0.00 | 82 | 1010.5 |
| 20260506024709 | 59 | 91 | 1.0 | 5.0 | 0.00 | 0.00 | 0.00 | 81 | 1010.3 |
| 20260506024205 | 60 | 114 | 3.0 | 3.0 | 0.00 | 0.00 | 0.00 | 80 | 1010.3 |
| 20260506023702 | 60 | 130 | 3.0 | 4.0 | 0.00 | 0.00 | 0.00 | 80 | 1010.4 |
| 20260506023159 | 60 | 188 | 1.0 | 4.0 | 0.00 | 0.00 | 0.00 | 79 | 1010.6 |
| 20260506022656 | 61 | 114 | 2.0 | 4.0 | 0.00 | 0.00 | 0.00 | 77 | 1010.2 |
| 20260506022154 | 61 | 133 | 3.0 | 4.0 | 0.00 | 0.00 | 0.00 | 77 | 1010.5 |
| 20260506021651 | 62 | 118 | 0.0 | 2.0 | 0.00 | 0.00 | 0.00 | 76 | 1010.6 |
| 20260506021148 | 62 | 181 | 2.0 | 3.0 | 0.00 | 0.00 | 0.00 | 75 | 1010.5 |
| 20260506020645 | 63 | 133 | 2.0 | 3.0 | 0.00 | 0.00 | 0.00 | 73 | 1010.5 |
| 20260506020143 | 64 | 193 | 2.0 | 3.0 | 0.00 | 0.00 | 0.00 | 71 | 1010.4 |
| 20260506015640 | 64 | 107 | 1.0 | 2.0 | 0.00 | 0.00 | 0.00 | 71 | 1010.5 |
| 20260506015137 | 64 | 153 | 1.0 | 2.0 | 0.00 | 0.00 | 0.00 | 71 | 1010.4 |
| 20260506014635 | 64 | 126 | 2.0 | 3.0 | 0.00 | 0.00 | 0.00 | 72 | 1010.3 |
| 20260506014130 | 64 | 118 | 2.0 | 3.0 | 0.00 | 0.00 | 0.00 | 72 | 1010.2 |
| 20260506013628 | 65 | 153 | 2.0 | 3.0 | 0.00 | 0.00 | 0.00 | 70 | 1010.3 |
| 20260506013125 | 65 | 103 | 1.0 | 3.0 | 0.00 | 0.00 | 0.00 | 68 | 1010.1 |
| 20260506012621 | 65 | 124 | 0.0 | 2.0 | 0.00 | 0.00 | 0.00 | 68 | 1010.2 |
| 20260506012117 | 66 | 166 | 0.0 | 2.0 | 0.00 | 0.00 | 0.00 | 67 | 1010.1 |
| 20260506011610 | 66 | 66 | 0.0 | 2.0 | 0.00 | 0.00 | 0.00 | 67 | 1010.1 |
| 20260506011106 | 66 | 193 | 0.0 | 2.0 | 0.00 | 0.00 | 0.00 | 66 | 1009.7 |